Accueil
METAR-TAF:

METAR-TAF

Aéroports :

Bückeburg, Allemagne

latitude: 52-17N, longitude: 009-05E, altitude: 70 m

Observation

Le bulletin a été fait il y a 49 minutes, à 02:20 UTC
Vent 2 kt de sud
Température 0°C
Humidité 86%
Pression 1025 hPa
Visibilité: 7000 m

METAR: ETHB 170220Z AUTO 18002KT 7000 // ////// 00/M02 Q1025 ///

Heure: 05:09 (03:09 UTC)

Prévision

Le bulletin a été fait il y a 20 heures et 8 minutes, à 07:01 UTC
Prévision valable du 16 à 08 UTC au 16 à 17 UTC
Vent 5 kt de nord
Visibilité 10 km ou plus
Quelques nuages à une hauteur de 3000 ft
Nuages épars à une hauteur de 13000 ft

TAF: ETHB 160701Z 1608/1617 36005KT 9999 NSW FEW030 SCT130

Observations et prévisions météorologiques de plus de 4000 aéroports (messages METAR et TAF).

Les stations disponibles sont représentées par des disques jaunes et rouges sur la carte.

Passer la souris dessus pour voir le nom de la station.

Cliquer dessus pour voir les observations et prévisions météorologiques.

Pour changer de carte: cliquez sur les boutons verts avec une croix noire pour zoomer, sur le bouton vert avec un tiret pour effectuer un zoom arrière, ou sur les flèches vertes pour les cartes adjacentes.


METAR-TAF: